sensor_id;sensor_type;location;lat;lon;timestamp;P1;durP1;ratioP1;P2;durP2;ratioP2
4555;SDS011;2290;48.674;9.018;2023-04-08T00:00:43;13.03;;;6.03;;
4555;SDS011;2290;48.674;9.018;2023-04-08T00:03:09;16.90;;;7.83;;
4555;SDS011;2290;48.674;9.018;2023-04-08T00:05:35;15.60;;;6.97;;
4555;SDS011;2290;48.674;9.018;2023-04-08T00:08:00;12.77;;;6.40;;
4555;SDS011;2290;48.674;9.018;2023-04-08T00:10:26;14.93;;;6.83;;
4555;SDS011;2290;48.674;9.018;2023-04-08T00:12:51;12.73;;;6.40;;
4555;SDS011;2290;48.674;9.018;2023-04-08T00:15:17;12.17;;;6.53;;
4555;SDS011;2290;48.674;9.018;2023-04-08T00:17:44;16.70;;;7.40;;
4555;SDS011;2290;48.674;9.018;2023-04-08T00:20:09;14.30;;;7.57;;
4555;SDS011;2290;48.674;9.018;2023-04-08T00:22:35;14.37;;;7.23;;
4555;SDS011;2290;48.674;9.018;2023-04-08T00:25:02;13.37;;;7.40;;
4555;SDS011;2290;48.674;9.018;2023-04-08T00:27:30;12.27;;;6.30;;
4555;SDS011;2290;48.674;9.018;2023-04-08T00:29:58;11.70;;;6.00;;
4555;SDS011;2290;48.674;9.018;2023-04-08T00:32:24;19.90;;;7.70;;
4555;SDS011;2290;48.674;9.018;2023-04-08T00:34:50;14.40;;;7.50;;
4555;SDS011;2290;48.674;9.018;2023-04-08T00:37:16;12.87;;;7.00;;
4555;SDS011;2290;48.674;9.018;2023-04-08T00:39:42;15.87;;;7.17;;
4555;SDS011;2290;48.674;9.018;2023-04-08T00:42:07;14.30;;;7.60;;
4555;SDS011;2290;48.674;9.018;2023-04-08T00:44:34;14.93;;;7.07;;
4555;SDS011;2290;48.674;9.018;2023-04-08T00:46:59;15.07;;;6.70;;
4555;SDS011;2290;48.674;9.018;2023-04-08T00:49:25;13.27;;;6.93;;
4555;SDS011;2290;48.674;9.018;2023-04-08T00:51:52;13.97;;;7.10;;
4555;SDS011;2290;48.674;9.018;2023-04-08T00:54:19;12.33;;;7.00;;
4555;SDS011;2290;48.674;9.018;2023-04-08T00:56:44;11.50;;;6.30;;
4555;SDS011;2290;48.674;9.018;2023-04-08T00:59:10;9.20;;;5.73;;
4555;SDS011;2290;48.674;9.018;2023-04-08T01:06:37;13.70;;;6.10;;
4555;SDS011;2290;48.674;9.018;2023-04-08T01:09:11;9.37;;;5.37;;
4555;SDS011;2290;48.674;9.018;2023-04-08T01:11:40;13.13;;;6.37;;
4555;SDS011;2290;48.674;9.018;2023-04-08T01:14:11;12.10;;;6.53;;
4555;SDS011;2290;48.674;9.018;2023-04-08T01:16:43;12.43;;;5.93;;
4555;SDS011;2290;48.674;9.018;2023-04-08T01:19:12;10.47;;;5.87;;
4555;SDS011;2290;48.674;9.018;2023-04-08T01:21:47;9.40;;;5.20;;
4555;SDS011;2290;48.674;9.018;2023-04-08T01:24:19;11.33;;;6.50;;
4555;SDS011;2290;48.674;9.018;2023-04-08T01:26:54;10.80;;;5.53;;
4555;SDS011;2290;48.674;9.018;2023-04-08T01:29:21;11.07;;;5.57;;
4555;SDS011;2290;48.674;9.018;2023-04-08T01:31:48;8.57;;;5.00;;
4555;SDS011;2290;48.674;9.018;2023-04-08T01:34:16;7.90;;;5.53;;
4555;SDS011;2290;48.674;9.018;2023-04-08T01:36:43;10.03;;;5.40;;
4555;SDS011;2290;48.674;9.018;2023-04-08T01:39:11;10.37;;;5.23;;
4555;SDS011;2290;48.674;9.018;2023-04-08T01:41:41;10.43;;;5.20;;
4555;SDS011;2290;48.674;9.018;2023-04-08T01:44:08;10.80;;;5.30;;
4555;SDS011;2290;48.674;9.018;2023-04-08T01:46:35;10.70;;;5.00;;
4555;SDS011;2290;48.674;9.018;2023-04-08T01:49:02;10.90;;;5.33;;
4555;SDS011;2290;48.674;9.018;2023-04-08T01:51:30;9.77;;;5.60;;
4555;SDS011;2290;48.674;9.018;2023-04-08T01:53:56;9.50;;;5.53;;
4555;SDS011;2290;48.674;9.018;2023-04-08T01:56:22;9.60;;;6.07;;
4555;SDS011;2290;48.674;9.018;2023-04-08T01:58:54;10.90;;;6.33;;
4555;SDS011;2290;48.674;9.018;2023-04-08T02:01:24;9.37;;;5.60;;
4555;SDS011;2290;48.674;9.018;2023-04-08T02:03:54;11.33;;;6.37;;
4555;SDS011;2290;48.674;9.018;2023-04-08T02:06:21;10.73;;;6.00;;
4555;SDS011;2290;48.674;9.018;2023-04-08T02:08:47;12.30;;;6.40;;
4555;SDS011;2290;48.674;9.018;2023-04-08T02:11:13;13.53;;;7.03;;
4555;SDS011;2290;48.674;9.018;2023-04-08T02:13:38;9.80;;;5.80;;
4555;SDS011;2290;48.674;9.018;2023-04-08T02:18:55;12.63;;;7.00;;
4555;SDS011;2290;48.674;9.018;2023-04-08T02:21:26;15.87;;;7.40;;
4555;SDS011;2290;48.674;9.018;2023-04-08T02:24:04;11.70;;;6.87;;
4555;SDS011;2290;48.674;9.018;2023-04-08T02:26:35;14.63;;;7.60;;
4555;SDS011;2290;48.674;9.018;2023-04-08T02:29:02;15.27;;;7.57;;
4555;SDS011;2290;48.674;9.018;2023-04-08T02:31:32;15.53;;;7.90;;
4555;SDS011;2290;48.674;9.018;2023-04-08T02:33:58;13.77;;;7.80;;
4555;SDS011;2290;48.674;9.018;2023-04-08T02:36:24;12.50;;;6.80;;
4555;SDS011;2290;48.674;9.018;2023-04-08T02:38:50;14.90;;;7.17;;
4555;SDS011;2290;48.674;9.018;2023-04-08T02:41:16;14.53;;;8.23;;
4555;SDS011;2290;48.674;9.018;2023-04-08T02:43:42;12.40;;;7.00;;
4555;SDS011;2290;48.674;9.018;2023-04-08T02:46:07;16.83;;;7.70;;
4555;SDS011;2290;48.674;9.018;2023-04-08T02:48:34;13.83;;;7.67;;
4555;SDS011;2290;48.674;9.018;2023-04-08T02:51:00;14.57;;;7.77;;
4555;SDS011;2290;48.674;9.018;2023-04-08T02:53:26;15.10;;;6.50;;
4555;SDS011;2290;48.674;9.018;2023-04-08T02:55:51;14.23;;;8.00;;
4555;SDS011;2290;48.674;9.018;2023-04-08T02:58:17;11.80;;;5.80;;
4555;SDS011;2290;48.674;9.018;2023-04-08T03:00:44;12.80;;;7.37;;
4555;SDS011;2290;48.674;9.018;2023-04-08T03:03:10;13.50;;;7.10;;
4555;SDS011;2290;48.674;9.018;2023-04-08T03:05:35;11.70;;;6.33;;
4555;SDS011;2290;48.674;9.018;2023-04-08T03:08:01;13.57;;;7.70;;
4555;SDS011;2290;48.674;9.018;2023-04-08T03:10:26;16.00;;;7.30;;
4555;SDS011;2290;48.674;9.018;2023-04-08T03:12:52;10.00;;;6.10;;
4555;SDS011;2290;48.674;9.018;2023-04-08T03:15:18;13.83;;;7.00;;
4555;SDS011;2290;48.674;9.018;2023-04-08T03:17:44;18.47;;;7.57;;
4555;SDS011;2290;48.674;9.018;2023-04-08T03:20:11;13.87;;;6.80;;
4555;SDS011;2290;48.674;9.018;2023-04-08T03:22:37;14.23;;;6.20;;
4555;SDS011;2290;48.674;9.018;2023-04-08T03:25:03;11.67;;;6.17;;
4555;SDS011;2290;48.674;9.018;2023-04-08T03:27:29;14.13;;;6.77;;
4555;SDS011;2290;48.674;9.018;2023-04-08T03:29:55;13.40;;;5.80;;
4555;SDS011;2290;48.674;9.018;2023-04-08T03:32:21;14.57;;;7.40;;
4555;SDS011;2290;48.674;9.018;2023-04-08T03:34:47;14.33;;;7.03;;
4555;SDS011;2290;48.674;9.018;2023-04-08T03:37:15;10.87;;;6.20;;
4555;SDS011;2290;48.674;9.018;2023-04-08T03:39:41;10.67;;;6.70;;
4555;SDS011;2290;48.674;9.018;2023-04-08T03:42:07;9.93;;;5.13;;
4555;SDS011;2290;48.674;9.018;2023-04-08T03:44:32;10.27;;;5.73;;
4555;SDS011;2290;48.674;9.018;2023-04-08T03:46:58;13.80;;;6.47;;
4555;SDS011;2290;48.674;9.018;2023-04-08T03:49:23;9.90;;;5.97;;
4555;SDS011;2290;48.674;9.018;2023-04-08T03:51:49;13.10;;;6.70;;
4555;SDS011;2290;48.674;9.018;2023-04-08T03:54:16;14.47;;;6.47;;
4555;SDS011;2290;48.674;9.018;2023-04-08T03:56:42;13.13;;;6.40;;
4555;SDS011;2290;48.674;9.018;2023-04-08T03:59:07;15.10;;;7.00;;
4555;SDS011;2290;48.674;9.018;2023-04-08T04:01:33;15.07;;;6.90;;
4555;SDS011;2290;48.674;9.018;2023-04-08T04:03:59;13.53;;;6.87;;
4555;SDS011;2290;48.674;9.018;2023-04-08T04:06:24;12.60;;;6.93;;
4555;SDS011;2290;48.674;9.018;2023-04-08T04:08:52;13.33;;;6.93;;
4555;SDS011;2290;48.674;9.018;2023-04-08T04:11:19;16.13;;;7.20;;
4555;SDS011;2290;48.674;9.018;2023-04-08T04:13:47;16.00;;;7.20;;
4555;SDS011;2290;48.674;9.018;2023-04-08T04:16:13;11.20;;;6.30;;
4555;SDS011;2290;48.674;9.018;2023-04-08T04:18:38;15.73;;;6.37;;
4555;SDS011;2290;48.674;9.018;2023-04-08T04:21:05;14.73;;;6.93;;
4555;SDS011;2290;48.674;9.018;2023-04-08T04:23:33;14.00;;;6.20;;
4555;SDS011;2290;48.674;9.018;2023-04-08T04:25:59;10.27;;;6.40;;
4555;SDS011;2290;48.674;9.018;2023-04-08T04:28:26;10.03;;;6.30;;
4555;SDS011;2290;48.674;9.018;2023-04-08T04:30:52;13.90;;;6.50;;
4555;SDS011;2290;48.674;9.018;2023-04-08T04:33:17;12.80;;;6.73;;
4555;SDS011;2290;48.674;9.018;2023-04-08T04:35:45;13.63;;;7.07;;
4555;SDS011;2290;48.674;9.018;2023-04-08T04:38:11;13.57;;;6.90;;
4555;SDS011;2290;48.674;9.018;2023-04-08T04:40:38;12.67;;;6.43;;
4555;SDS011;2290;48.674;9.018;2023-04-08T04:43:04;12.00;;;6.20;;
4555;SDS011;2290;48.674;9.018;2023-04-08T04:45:31;12.67;;;7.33;;
4555;SDS011;2290;48.674;9.018;2023-04-08T04:47:57;13.07;;;7.47;;
4555;SDS011;2290;48.674;9.018;2023-04-08T04:50:22;14.17;;;7.37;;
4555;SDS011;2290;48.674;9.018;2023-04-08T04:52:48;13.77;;;7.57;;
4555;SDS011;2290;48.674;9.018;2023-04-08T04:55:14;14.77;;;7.23;;
4555;SDS011;2290;48.674;9.018;2023-04-08T04:57:40;18.13;;;8.07;;
4555;SDS011;2290;48.674;9.018;2023-04-08T05:00:08;13.40;;;6.90;;
4555;SDS011;2290;48.674;9.018;2023-04-08T05:02:34;15.37;;;7.20;;
4555;SDS011;2290;48.674;9.018;2023-04-08T05:05:00;12.63;;;7.00;;
4555;SDS011;2290;48.674;9.018;2023-04-08T05:07:27;13.07;;;7.30;;
4555;SDS011;2290;48.674;9.018;2023-04-08T05:09:52;13.03;;;6.83;;
4555;SDS011;2290;48.674;9.018;2023-04-08T05:12:20;12.67;;;7.53;;
4555;SDS011;2290;48.674;9.018;2023-04-08T05:14:45;16.43;;;7.57;;
4555;SDS011;2290;48.674;9.018;2023-04-08T05:17:11;15.60;;;7.27;;
4555;SDS011;2290;48.674;9.018;2023-04-08T05:19:38;12.20;;;7.10;;
4555;SDS011;2290;48.674;9.018;2023-04-08T05:22:04;14.33;;;7.37;;
4555;SDS011;2290;48.674;9.018;2023-04-08T05:24:29;11.37;;;6.30;;
4555;SDS011;2290;48.674;9.018;2023-04-08T05:26:55;16.10;;;6.60;;
4555;SDS011;2290;48.674;9.018;2023-04-08T05:29:22;14.87;;;7.63;;
4555;SDS011;2290;48.674;9.018;2023-04-08T05:31:48;12.63;;;7.30;;
4555;SDS011;2290;48.674;9.018;2023-04-08T05:34:14;13.60;;;7.00;;
4555;SDS011;2290;48.674;9.018;2023-04-08T05:36:43;13.20;;;6.47;;
4555;SDS011;2290;48.674;9.018;2023-04-08T05:39:11;15.00;;;7.43;;
4555;SDS011;2290;48.674;9.018;2023-04-08T05:41:36;13.60;;;7.53;;
4555;SDS011;2290;48.674;9.018;2023-04-08T05:44:03;17.53;;;7.27;;
4555;SDS011;2290;48.674;9.018;2023-04-08T05:46:28;15.47;;;8.33;;
4555;SDS011;2290;48.674;9.018;2023-04-08T05:48:55;14.50;;;7.50;;
4555;SDS011;2290;48.674;9.018;2023-04-08T05:51:20;12.40;;;7.20;;
4555;SDS011;2290;48.674;9.018;2023-04-08T05:53:46;14.00;;;6.83;;
4555;SDS011;2290;48.674;9.018;2023-04-08T05:56:12;13.13;;;7.83;;
4555;SDS011;2290;48.674;9.018;2023-04-08T05:58:37;17.50;;;7.57;;
4555;SDS011;2290;48.674;9.018;2023-04-08T06:01:03;17.70;;;8.73;;
4555;SDS011;2290;48.674;9.018;2023-04-08T06:03:30;12.43;;;6.97;;
4555;SDS011;2290;48.674;9.018;2023-04-08T06:05:56;16.03;;;7.90;;
4555;SDS011;2290;48.674;9.018;2023-04-08T06:08:21;17.60;;;8.23;;
4555;SDS011;2290;48.674;9.018;2023-04-08T06:10:49;10.87;;;6.67;;
4555;SDS011;2290;48.674;9.018;2023-04-08T06:13:15;11.30;;;6.60;;
4555;SDS011;2290;48.674;9.018;2023-04-08T06:15:42;8.27;;;5.37;;
4555;SDS011;2290;48.674;9.018;2023-04-08T06:18:09;12.20;;;6.80;;
4555;SDS011;2290;48.674;9.018;2023-04-08T06:20:35;11.90;;;6.50;;
4555;SDS011;2290;48.674;9.018;2023-04-08T06:23:00;15.53;;;7.00;;
4555;SDS011;2290;48.674;9.018;2023-04-08T06:25:27;12.50;;;5.30;;
4555;SDS011;2290;48.674;9.018;2023-04-08T06:27:53;10.63;;;5.90;;
4555;SDS011;2290;48.674;9.018;2023-04-08T06:30:18;9.63;;;5.80;;
4555;SDS011;2290;48.674;9.018;2023-04-08T06:32:44;12.83;;;6.83;;
4555;SDS011;2290;48.674;9.018;2023-04-08T06:35:11;10.20;;;5.70;;
4555;SDS011;2290;48.674;9.018;2023-04-08T06:37:37;8.30;;;4.97;;
4555;SDS011;2290;48.674;9.018;2023-04-08T06:40:04;8.07;;;5.40;;
4555;SDS011;2290;48.674;9.018;2023-04-08T06:42:31;9.50;;;5.80;;
4555;SDS011;2290;48.674;9.018;2023-04-08T06:44:58;7.73;;;5.20;;
4555;SDS011;2290;48.674;9.018;2023-04-08T06:47:25;12.03;;;6.10;;
4555;SDS011;2290;48.674;9.018;2023-04-08T06:49:51;11.30;;;6.07;;
4555;SDS011;2290;48.674;9.018;2023-04-08T06:52:16;8.00;;;5.30;;
4555;SDS011;2290;48.674;9.018;2023-04-08T06:54:42;8.23;;;5.07;;
4555;SDS011;2290;48.674;9.018;2023-04-08T06:57:08;8.77;;;4.90;;
4555;SDS011;2290;48.674;9.018;2023-04-08T06:59:34;10.13;;;5.97;;
4555;SDS011;2290;48.674;9.018;2023-04-08T07:02:00;12.30;;;5.80;;
4555;SDS011;2290;48.674;9.018;2023-04-08T07:04:25;12.07;;;5.80;;
4555;SDS011;2290;48.674;9.018;2023-04-08T07:06:51;9.33;;;5.60;;
4555;SDS011;2290;48.674;9.018;2023-04-08T07:09:17;8.70;;;4.83;;
4555;SDS011;2290;48.674;9.018;2023-04-08T07:11:43;7.87;;;5.10;;
4555;SDS011;2290;48.674;9.018;2023-04-08T07:14:08;7.63;;;4.70;;
4555;SDS011;2290;48.674;9.018;2023-04-08T07:16:34;10.30;;;5.70;;
4555;SDS011;2290;48.674;9.018;2023-04-08T07:18:59;8.40;;;5.03;;
4555;SDS011;2290;48.674;9.018;2023-04-08T07:21:26;10.13;;;5.20;;
4555;SDS011;2290;48.674;9.018;2023-04-08T07:23:51;9.83;;;4.63;;
4555;SDS011;2290;48.674;9.018;2023-04-08T07:26:17;5.73;;;4.13;;
4555;SDS011;2290;48.674;9.018;2023-04-08T07:28:43;6.47;;;4.10;;
4555;SDS011;2290;48.674;9.018;2023-04-08T07:31:12;5.60;;;3.60;;
4555;SDS011;2290;48.674;9.018;2023-04-08T07:33:41;6.20;;;3.60;;
4555;SDS011;2290;48.674;9.018;2023-04-08T07:36:09;8.67;;;4.37;;
4555;SDS011;2290;48.674;9.018;2023-04-08T07:38:35;9.70;;;4.40;;
4555;SDS011;2290;48.674;9.018;2023-04-08T07:41:01;7.30;;;4.40;;
4555;SDS011;2290;48.674;9.018;2023-04-08T07:43:27;7.20;;;4.13;;
4555;SDS011;2290;48.674;9.018;2023-04-08T07:45:59;8.30;;;4.70;;
4555;SDS011;2290;48.674;9.018;2023-04-08T07:48:27;6.77;;;4.10;;
4555;SDS011;2290;48.674;9.018;2023-04-08T07:50:53;6.93;;;4.43;;
4555;SDS011;2290;48.674;9.018;2023-04-08T07:53:21;7.97;;;4.90;;
4555;SDS011;2290;48.674;9.018;2023-04-08T07:55:49;7.77;;;5.03;;
4555;SDS011;2290;48.674;9.018;2023-04-08T07:58:15;7.63;;;4.70;;
4555;SDS011;2290;48.674;9.018;2023-04-08T08:00:40;10.33;;;4.87;;
4555;SDS011;2290;48.674;9.018;2023-04-08T08:03:06;8.00;;;4.80;;
4555;SDS011;2290;48.674;9.018;2023-04-08T08:05:31;8.10;;;4.77;;
4555;SDS011;2290;48.674;9.018;2023-04-08T08:07:58;7.70;;;5.20;;
4555;SDS011;2290;48.674;9.018;2023-04-08T08:10:25;7.93;;;4.03;;
4555;SDS011;2290;48.674;9.018;2023-04-08T08:12:51;9.07;;;5.37;;
4555;SDS011;2290;48.674;9.018;2023-04-08T08:15:17;8.97;;;4.77;;
4555;SDS011;2290;48.674;9.018;2023-04-08T08:17:42;8.90;;;5.10;;
4555;SDS011;2290;48.674;9.018;2023-04-08T08:20:08;7.07;;;4.60;;
4555;SDS011;2290;48.674;9.018;2023-04-08T08:22:35;8.17;;;4.60;;
4555;SDS011;2290;48.674;9.018;2023-04-08T08:25:03;8.33;;;5.03;;
4555;SDS011;2290;48.674;9.018;2023-04-08T08:27:29;9.43;;;5.90;;
4555;SDS011;2290;48.674;9.018;2023-04-08T08:29:58;9.33;;;5.30;;
4555;SDS011;2290;48.674;9.018;2023-04-08T08:32:24;8.10;;;5.37;;
4555;SDS011;2290;48.674;9.018;2023-04-08T08:34:50;7.57;;;4.70;;
4555;SDS011;2290;48.674;9.018;2023-04-08T08:37:15;7.50;;;5.37;;
4555;SDS011;2290;48.674;9.018;2023-04-08T08:39:41;12.47;;;5.43;;
4555;SDS011;2290;48.674;9.018;2023-04-08T08:42:16;8.43;;;5.63;;
4555;SDS011;2290;48.674;9.018;2023-04-08T08:44:47;10.33;;;5.90;;
4555;SDS011;2290;48.674;9.018;2023-04-08T08:47:13;12.90;;;6.83;;
4555;SDS011;2290;48.674;9.018;2023-04-08T08:49:40;11.10;;;6.17;;
4555;SDS011;2290;48.674;9.018;2023-04-08T08:52:08;10.87;;;6.43;;
4555;SDS011;2290;48.674;9.018;2023-04-08T08:54:34;7.50;;;4.87;;
4555;SDS011;2290;48.674;9.018;2023-04-08T08:56:59;10.00;;;5.70;;
4555;SDS011;2290;48.674;9.018;2023-04-08T08:59:26;9.30;;;5.70;;
4555;SDS011;2290;48.674;9.018;2023-04-08T09:01:51;10.23;;;6.60;;
4555;SDS011;2290;48.674;9.018;2023-04-08T09:04:18;11.23;;;6.60;;
4555;SDS011;2290;48.674;9.018;2023-04-08T09:06:46;11.07;;;5.97;;
4555;SDS011;2290;48.674;9.018;2023-04-08T09:09:15;14.43;;;7.30;;
4555;SDS011;2290;48.674;9.018;2023-04-08T09:11:42;10.10;;;6.30;;
4555;SDS011;2290;48.674;9.018;2023-04-08T09:14:21;12.23;;;6.30;;
4555;SDS011;2290;48.674;9.018;2023-04-08T09:16:49;9.93;;;6.27;;
4555;SDS011;2290;48.674;9.018;2023-04-08T09:19:16;10.80;;;6.70;;
4555;SDS011;2290;48.674;9.018;2023-04-08T09:21:43;14.80;;;7.43;;
4555;SDS011;2290;48.674;9.018;2023-04-08T09:24:30;10.97;;;6.87;;
4555;SDS011;2290;48.674;9.018;2023-04-08T09:26:57;13.23;;;7.10;;
4555;SDS011;2290;48.674;9.018;2023-04-08T09:29:23;10.73;;;6.67;;
4555;SDS011;2290;48.674;9.018;2023-04-08T09:31:57;13.60;;;7.13;;
4555;SDS011;2290;48.674;9.018;2023-04-08T09:34:24;12.67;;;7.17;;
4555;SDS011;2290;48.674;9.018;2023-04-08T09:36:52;12.33;;;6.90;;
4555;SDS011;2290;48.674;9.018;2023-04-08T09:39:19;11.70;;;6.60;;
4555;SDS011;2290;48.674;9.018;2023-04-08T09:41:49;12.23;;;6.87;;
4555;SDS011;2290;48.674;9.018;2023-04-08T09:44:16;9.63;;;6.43;;
4555;SDS011;2290;48.674;9.018;2023-04-08T09:49:25;12.20;;;7.17;;
4555;SDS011;2290;48.674;9.018;2023-04-08T09:52:10;12.83;;;7.00;;
4555;SDS011;2290;48.674;9.018;2023-04-08T09:54:43;10.17;;;6.30;;
4555;SDS011;2290;48.674;9.018;2023-04-08T09:57:13;13.20;;;7.40;;
4555;SDS011;2290;48.674;9.018;2023-04-08T09:59:51;12.93;;;7.57;;
4555;SDS011;2290;48.674;9.018;2023-04-08T10:02:28;10.33;;;6.40;;
4555;SDS011;2290;48.674;9.018;2023-04-08T10:04:58;10.87;;;6.90;;
4555;SDS011;2290;48.674;9.018;2023-04-08T10:07:25;13.07;;;7.20;;
4555;SDS011;2290;48.674;9.018;2023-04-08T10:09:50;11.87;;;7.20;;
4555;SDS011;2290;48.674;9.018;2023-04-08T10:12:16;12.70;;;7.10;;
4555;SDS011;2290;48.674;9.018;2023-04-08T10:15:04;13.73;;;6.63;;
4555;SDS011;2290;48.674;9.018;2023-04-08T10:17:50;11.30;;;6.70;;
4555;SDS011;2290;48.674;9.018;2023-04-08T10:23:07;11.93;;;6.80;;
4555;SDS011;2290;48.674;9.018;2023-04-08T10:25:40;13.77;;;7.20;;
4555;SDS011;2290;48.674;9.018;2023-04-08T10:30:45;10.77;;;7.10;;
4555;SDS011;2290;48.674;9.018;2023-04-08T10:33:14;13.47;;;7.37;;
4555;SDS011;2290;48.674;9.018;2023-04-08T10:35:52;15.00;;;7.80;;
4555;SDS011;2290;48.674;9.018;2023-04-08T10:38:24;13.30;;;7.37;;
4555;SDS011;2290;48.674;9.018;2023-04-08T10:40:49;11.17;;;6.80;;
4555;SDS011;2290;48.674;9.018;2023-04-08T10:43:16;11.80;;;6.90;;
4555;SDS011;2290;48.674;9.018;2023-04-08T10:45:42;10.37;;;6.90;;
4555;SDS011;2290;48.674;9.018;2023-04-08T10:48:12;13.07;;;7.50;;
4555;SDS011;2290;48.674;9.018;2023-04-08T10:50:56;10.73;;;6.97;;
4555;SDS011;2290;48.674;9.018;2023-04-08T10:53:44;14.77;;;8.27;;
4555;SDS011;2290;48.674;9.018;2023-04-08T10:56:10;17.03;;;9.47;;
4555;SDS011;2290;48.674;9.018;2023-04-08T11:01:14;12.60;;;8.33;;
4555;SDS011;2290;48.674;9.018;2023-04-08T11:03:40;11.90;;;7.60;;
4555;SDS011;2290;48.674;9.018;2023-04-08T11:06:07;12.90;;;7.80;;
4555;SDS011;2290;48.674;9.018;2023-04-08T11:08:33;14.63;;;8.13;;
4555;SDS011;2290;48.674;9.018;2023-04-08T11:11:02;13.37;;;8.70;;
4555;SDS011;2290;48.674;9.018;2023-04-08T11:13:33;12.73;;;8.40;;
4555;SDS011;2290;48.674;9.018;2023-04-08T11:16:00;10.50;;;7.60;;
4555;SDS011;2290;48.674;9.018;2023-04-08T11:18:28;10.87;;;7.40;;
4555;SDS011;2290;48.674;9.018;2023-04-08T11:20:55;13.03;;;8.10;;
4555;SDS011;2290;48.674;9.018;2023-04-08T11:23:23;12.60;;;8.40;;
4555;SDS011;2290;48.674;9.018;2023-04-08T11:25:50;13.47;;;7.93;;
4555;SDS011;2290;48.674;9.018;2023-04-08T11:28:16;13.07;;;9.03;;
4555;SDS011;2290;48.674;9.018;2023-04-08T11:30:42;12.40;;;7.70;;
4555;SDS011;2290;48.674;9.018;2023-04-08T11:33:09;17.50;;;8.63;;
4555;SDS011;2290;48.674;9.018;2023-04-08T11:35:40;13.40;;;7.80;;
4555;SDS011;2290;48.674;9.018;2023-04-08T11:38:09;13.17;;;8.60;;
4555;SDS011;2290;48.674;9.018;2023-04-08T11:40:35;14.60;;;8.37;;
4555;SDS011;2290;48.674;9.018;2023-04-08T11:43:11;16.17;;;9.80;;
4555;SDS011;2290;48.674;9.018;2023-04-08T11:45:41;14.90;;;9.10;;
4555;SDS011;2290;48.674;9.018;2023-04-08T11:48:10;13.40;;;8.03;;
4555;SDS011;2290;48.674;9.018;2023-04-08T11:50:37;14.80;;;8.00;;
4555;SDS011;2290;48.674;9.018;2023-04-08T11:53:25;11.77;;;8.27;;
4555;SDS011;2290;48.674;9.018;2023-04-08T11:55:50;17.07;;;8.00;;
4555;SDS011;2290;48.674;9.018;2023-04-08T11:58:16;13.80;;;9.00;;
4555;SDS011;2290;48.674;9.018;2023-04-08T12:00:42;13.17;;;7.97;;
4555;SDS011;2290;48.674;9.018;2023-04-08T12:03:10;14.67;;;8.03;;
4555;SDS011;2290;48.674;9.018;2023-04-08T12:05:35;16.73;;;8.70;;
4555;SDS011;2290;48.674;9.018;2023-04-08T12:08:03;13.40;;;8.20;;
4555;SDS011;2290;48.674;9.018;2023-04-08T12:10:28;17.73;;;8.63;;
4555;SDS011;2290;48.674;9.018;2023-04-08T12:12:54;19.00;;;8.30;;
4555;SDS011;2290;48.674;9.018;2023-04-08T12:15:19;16.90;;;8.30;;
4555;SDS011;2290;48.674;9.018;2023-04-08T12:17:45;11.23;;;7.47;;
4555;SDS011;2290;48.674;9.018;2023-04-08T12:20:11;12.93;;;8.00;;
4555;SDS011;2290;48.674;9.018;2023-04-08T12:22:37;12.23;;;7.30;;
4555;SDS011;2290;48.674;9.018;2023-04-08T12:25:04;12.57;;;7.87;;
4555;SDS011;2290;48.674;9.018;2023-04-08T12:27:30;19.80;;;8.60;;
4555;SDS011;2290;48.674;9.018;2023-04-08T12:30:00;10.40;;;7.60;;
4555;SDS011;2290;48.674;9.018;2023-04-08T12:32:26;12.97;;;7.87;;
4555;SDS011;2290;48.674;9.018;2023-04-08T12:34:52;10.67;;;7.63;;
4555;SDS011;2290;48.674;9.018;2023-04-08T12:37:18;12.67;;;7.80;;
4555;SDS011;2290;48.674;9.018;2023-04-08T12:39:45;11.63;;;7.40;;
4555;SDS011;2290;48.674;9.018;2023-04-08T12:42:12;14.27;;;8.20;;
4555;SDS011;2290;48.674;9.018;2023-04-08T12:44:38;13.17;;;8.20;;
4555;SDS011;2290;48.674;9.018;2023-04-08T12:47:03;15.50;;;7.47;;
4555;SDS011;2290;48.674;9.018;2023-04-08T12:49:30;15.50;;;8.50;;
4555;SDS011;2290;48.674;9.018;2023-04-08T12:51:56;10.47;;;7.50;;
4555;SDS011;2290;48.674;9.018;2023-04-08T12:54:23;13.87;;;8.00;;
4555;SDS011;2290;48.674;9.018;2023-04-08T12:56:48;12.73;;;8.00;;
4555;SDS011;2290;48.674;9.018;2023-04-08T12:59:15;14.57;;;8.43;;
4555;SDS011;2290;48.674;9.018;2023-04-08T13:01:42;10.53;;;7.77;;
4555;SDS011;2290;48.674;9.018;2023-04-08T13:04:09;13.70;;;7.37;;
4555;SDS011;2290;48.674;9.018;2023-04-08T13:06:34;14.23;;;8.43;;
4555;SDS011;2290;48.674;9.018;2023-04-08T13:09:01;13.40;;;8.23;;
4555;SDS011;2290;48.674;9.018;2023-04-08T13:11:27;10.80;;;7.03;;
4555;SDS011;2290;48.674;9.018;2023-04-08T13:13:54;12.80;;;8.53;;
4555;SDS011;2290;48.674;9.018;2023-04-08T13:16:20;11.57;;;7.53;;
4555;SDS011;2290;48.674;9.018;2023-04-08T13:18:45;11.20;;;6.80;;
4555;SDS011;2290;48.674;9.018;2023-04-08T13:21:11;11.67;;;7.80;;
4555;SDS011;2290;48.674;9.018;2023-04-08T13:23:37;13.73;;;8.73;;
4555;SDS011;2290;48.674;9.018;2023-04-08T13:26:07;12.00;;;8.00;;
4555;SDS011;2290;48.674;9.018;2023-04-08T13:28:33;12.37;;;8.03;;
4555;SDS011;2290;48.674;9.018;2023-04-08T13:30:58;12.67;;;7.50;;
4555;SDS011;2290;48.674;9.018;2023-04-08T13:33:24;11.93;;;7.37;;
4555;SDS011;2290;48.674;9.018;2023-04-08T13:35:51;12.70;;;8.23;;
4555;SDS011;2290;48.674;9.018;2023-04-08T13:38:16;12.50;;;8.07;;
4555;SDS011;2290;48.674;9.018;2023-04-08T13:40:42;11.57;;;7.50;;
4555;SDS011;2290;48.674;9.018;2023-04-08T13:43:09;12.00;;;8.20;;
4555;SDS011;2290;48.674;9.018;2023-04-08T13:45:34;13.73;;;8.00;;
4555;SDS011;2290;48.674;9.018;2023-04-08T13:48:01;12.57;;;7.17;;
4555;SDS011;2290;48.674;9.018;2023-04-08T13:50:28;12.63;;;8.43;;
4555;SDS011;2290;48.674;9.018;2023-04-08T13:52:54;12.50;;;8.10;;
4555;SDS011;2290;48.674;9.018;2023-04-08T13:55:21;12.03;;;8.30;;
4555;SDS011;2290;48.674;9.018;2023-04-08T13:57:47;14.07;;;8.20;;
4555;SDS011;2290;48.674;9.018;2023-04-08T14:00:13;15.40;;;8.90;;
4555;SDS011;2290;48.674;9.018;2023-04-08T14:02:39;12.70;;;8.53;;
4555;SDS011;2290;48.674;9.018;2023-04-08T14:05:05;13.47;;;8.33;;
4555;SDS011;2290;48.674;9.018;2023-04-08T14:07:32;12.93;;;7.40;;
4555;SDS011;2290;48.674;9.018;2023-04-08T14:09:58;11.77;;;7.30;;
4555;SDS011;2290;48.674;9.018;2023-04-08T14:12:23;12.17;;;8.00;;
4555;SDS011;2290;48.674;9.018;2023-04-08T14:14:49;12.73;;;7.50;;
4555;SDS011;2290;48.674;9.018;2023-04-08T14:17:15;12.50;;;8.00;;
4555;SDS011;2290;48.674;9.018;2023-04-08T14:19:41;15.40;;;7.60;;
4555;SDS011;2290;48.674;9.018;2023-04-08T14:22:08;12.43;;;7.60;;
4555;SDS011;2290;48.674;9.018;2023-04-08T14:24:34;12.53;;;7.87;;
4555;SDS011;2290;48.674;9.018;2023-04-08T14:27:00;13.00;;;7.67;;
4555;SDS011;2290;48.674;9.018;2023-04-08T14:29:27;12.70;;;8.30;;
4555;SDS011;2290;48.674;9.018;2023-04-08T14:31:53;12.83;;;7.97;;
4555;SDS011;2290;48.674;9.018;2023-04-08T14:34:18;11.70;;;7.83;;
4555;SDS011;2290;48.674;9.018;2023-04-08T14:36:44;13.67;;;8.27;;
4555;SDS011;2290;48.674;9.018;2023-04-08T14:39:09;9.97;;;7.23;;
4555;SDS011;2290;48.674;9.018;2023-04-08T14:41:36;13.10;;;8.17;;
4555;SDS011;2290;48.674;9.018;2023-04-08T14:44:01;12.90;;;7.50;;
4555;SDS011;2290;48.674;9.018;2023-04-08T14:46:28;13.90;;;8.30;;
4555;SDS011;2290;48.674;9.018;2023-04-08T14:48:53;10.80;;;7.70;;
4555;SDS011;2290;48.674;9.018;2023-04-08T14:51:19;11.00;;;7.23;;
4555;SDS011;2290;48.674;9.018;2023-04-08T14:53:45;12.10;;;7.50;;
4555;SDS011;2290;48.674;9.018;2023-04-08T14:56:11;15.23;;;7.87;;
4555;SDS011;2290;48.674;9.018;2023-04-08T14:58:36;12.00;;;7.47;;
4555;SDS011;2290;48.674;9.018;2023-04-08T15:01:02;14.27;;;7.97;;
4555;SDS011;2290;48.674;9.018;2023-04-08T15:03:28;12.13;;;7.47;;
4555;SDS011;2290;48.674;9.018;2023-04-08T15:05:53;15.50;;;8.50;;
4555;SDS011;2290;48.674;9.018;2023-04-08T15:08:20;14.43;;;7.10;;
4555;SDS011;2290;48.674;9.018;2023-04-08T15:10:45;15.50;;;8.90;;
4555;SDS011;2290;48.674;9.018;2023-04-08T15:13:12;18.23;;;8.33;;
4555;SDS011;2290;48.674;9.018;2023-04-08T15:15:39;12.27;;;7.23;;
4555;SDS011;2290;48.674;9.018;2023-04-08T15:18:06;14.20;;;7.50;;
4555;SDS011;2290;48.674;9.018;2023-04-08T15:20:33;11.70;;;7.30;;